Time;durP1;ratioP1;P1;durP2;ratioP2;P2;SDS_P1;SDS_P2;PMS_P1;PMS_P2;Temp;Humidity;BMP_temperature;BMP_pressure;BME280_temperature;BME280_humidity;BME280_pressure;Samples;Min_cycle;Max_cycle;Signal;HPM_P1;HPM_P2
2022/04/08 00:01:43;;;;;;;20.08;9.93;;;9.30;99.90;;;;;;5083672;28;20442;-75
2022/04/08 00:04:09;;;;;;;23.27;10.32;;;9.20;99.90;;;;;;5085702;28;20383;-76
2022/04/08 00:06:35;;;;;;;24.90;12.52;;;9.20;99.90;;;;;;5083822;28;20051;-76
2022/04/08 00:09:01;;;;;;;26.38;12.63;;;9.10;99.90;;;;;;5085465;28;20769;-76
2022/04/08 00:11:26;;;;;;;30.17;15.95;;;9.10;99.90;;;;;;5084232;28;20566;-77
2022/04/08 00:13:53;;;;;;;30.65;15.88;;;9.10;99.90;;;;;;5084237;28;20095;-75
2022/04/08 00:16:20;;;;;;;37.15;18.80;;;9.00;99.90;;;;;;5085280;28;20356;-77
2022/04/08 00:18:45;;;;;;;42.25;19.33;;;9.00;99.90;;;;;;5083795;28;20079;-76
2022/04/08 00:21:11;;;;;;;41.90;19.77;;;9.00;99.90;;;;;;5083729;28;20032;-76
2022/04/08 00:23:37;;;;;;;41.40;19.23;;;9.00;99.90;;;;;;5083984;28;20028;-75
2022/04/08 00:26:03;;;;;;;41.85;19.35;;;9.00;99.90;;;;;;5085077;28;20024;-76
2022/04/08 00:28:29;;;;;;;34.90;19.27;;;9.00;99.90;;;;;;5085186;28;20460;-76
2022/04/08 00:30:55;;;;;;;38.63;19.30;;;8.90;99.90;;;;;;5083639;28;20031;-75
2022/04/08 00:33:21;;;;;;;38.10;19.63;;;8.90;99.90;;;;;;5085107;28;20039;-76
2022/04/08 00:35:47;;;;;;;39.47;20.23;;;8.80;99.90;;;;;;5084949;28;20062;-77
2022/04/08 00:38:13;;;;;;;52.72;24.80;;;8.80;99.90;;;;;;5083464;28;20344;-76
2022/04/08 00:40:38;;;;;;;52.75;25.50;;;8.80;99.90;;;;;;5085451;28;20370;-77
2022/04/08 00:43:16;;;;;;;51.25;25.52;;;8.70;99.90;;;;;;5084421;28;20029;-75
2022/04/08 00:45:43;;;;;;;52.88;26.17;;;8.70;99.90;;;;;;5084097;28;20028;-76
2022/04/08 00:48:09;;;;;;;82.00;40.30;;;8.70;99.90;;;;;;5083936;28;20020;-76
2022/04/08 00:50:41;;;;;;;71.40;37.20;;;8.60;99.90;;;;;;5085188;28;20028;-77
2022/04/08 00:53:07;;;;;;;125.03;54.40;;;8.60;99.90;;;;;;5083484;28;20036;-75
2022/04/08 00:55:35;;;;;;;83.53;41.45;;;8.60;99.90;;;;;;5080980;28;20029;-76
2022/04/08 00:58:03;;;;;;;135.73;61.42;;;8.60;99.90;;;;;;5078186;28;20044;-77
2022/04/08 01:00:37;;;;;;;99.38;45.83;;;8.50;99.90;;;;;;5046813;28;20479;-75
2022/04/08 01:03:04;;;;;;;90.07;40.50;;;8.50;99.90;;;;;;5063579;28;20021;-77
2022/04/08 01:05:31;;;;;;;101.18;45.45;;;8.40;99.90;;;;;;5063243;28;20037;-76
2022/04/08 01:07:57;;;;;;;170.45;74.20;;;8.40;99.90;;;;;;5062884;28;20028;-76
2022/04/08 01:10:23;;;;;;;350.73;150.52;;;8.40;99.90;;;;;;5063785;28;20020;-76
2022/04/08 01:12:50;;;;;;;152.05;66.13;;;8.40;99.90;;;;;;5064811;28;20025;-76
2022/04/08 01:15:17;;;;;;;174.90;73.85;;;8.40;99.90;;;;;;5062535;28;20017;-76
2022/04/08 01:17:43;;;;;;;93.45;42.58;;;8.30;99.90;;;;;;5063376;28;20028;-77
2022/04/08 01:20:10;;;;;;;111.20;50.25;;;8.20;99.90;;;;;;5064233;28;20100;-77
2022/04/08 01:22:36;;;;;;;112.50;51.55;;;8.20;99.90;;;;;;5062407;28;20534;-77
2022/04/08 01:25:03;;;;;;;125.32;52.95;;;8.20;99.90;;;;;;5045758;28;20467;-75
2022/04/08 01:27:30;;;;;;;109.05;48.70;;;8.20;99.90;;;;;;5064003;28;20100;-76
2022/04/08 01:29:56;;;;;;;105.40;49.10;;;8.20;99.90;;;;;;5062152;28;20426;-77
2022/04/08 01:32:22;;;;;;;97.63;46.20;;;8.20;99.90;;;;;;5063565;28;20556;-77
2022/04/08 01:34:49;;;;;;;95.60;45.65;;;8.20;99.90;;;;;;5063501;28;20021;-77
2022/04/08 01:37:16;;;;;;;94.28;45.78;;;8.20;99.90;;;;;;5062177;28;20024;-77
2022/04/08 01:39:42;;;;;;;91.47;44.70;;;8.20;99.90;;;;;;5063185;28;20024;-76
2022/04/08 01:42:08;;;;;;;100.30;47.75;;;8.20;99.90;;;;;;5063496;28;20494;-77
2022/04/08 01:44:35;;;;;;;95.43;44.75;;;8.10;99.90;;;;;;5061798;28;20048;-76
2022/04/08 01:47:01;;;;;;;104.50;51.42;;;8.00;99.90;;;;;;5063471;28;20024;-77
2022/04/08 01:49:27;;;;;;;94.05;47.00;;;8.00;99.90;;;;;;5063421;28;20025;-77
2022/04/08 01:51:53;;;;;;;89.90;45.85;;;8.00;99.90;;;;;;5061923;28;20021;-76
2022/04/08 01:54:19;;;;;;;89.15;44.63;;;8.00;99.90;;;;;;5063326;28;20027;-75
2022/04/08 01:56:45;;;;;;;83.95;42.63;;;8.10;99.90;;;;;;5062912;28;20021;-77
2022/04/08 01:59:11;;;;;;;88.03;41.53;;;8.10;99.90;;;;;;5062014;28;20055;-75
2022/04/08 02:01:37;;;;;;;80.40;39.53;;;8.10;99.90;;;;;;5061746;28;20459;-74
2022/04/08 02:04:04;;;;;;;83.85;40.00;;;8.10;99.90;;;;;;5063165;28;20043;-77
2022/04/08 02:06:30;;;;;;;90.00;41.75;;;8.10;99.90;;;;;;5063129;28;20025;-77
2022/04/08 02:08:57;;;;;;;84.07;41.03;;;8.10;99.90;;;;;;5067578;28;20406;-78
2022/04/08 02:11:24;;;;;;;96.30;42.40;;;8.10;99.90;;;;;;5056040;28;20032;-76
2022/04/08 02:13:50;;;;;;;81.65;35.55;;;8.10;99.90;;;;;;5055850;28;20055;-76
2022/04/08 02:16:16;;;;;;;77.97;35.72;;;8.00;99.90;;;;;;5073946;28;20021;-76
2022/04/08 02:18:42;;;;;;;85.28;35.78;;;8.00;99.90;;;;;;5055761;28;20031;-77
2022/04/08 02:21:09;;;;;;;92.65;37.08;;;8.00;99.90;;;;;;5073783;28;20565;-75
2022/04/08 02:23:36;;;;;;;91.13;39.45;;;8.10;99.90;;;;;;5073799;28;20028;-77
2022/04/08 02:26:05;;;;;;;84.07;35.83;;;8.10;99.90;;;;;;5073926;28;20036;-76
2022/04/08 02:28:33;;;;;;;75.45;33.15;;;8.10;99.90;;;;;;5073399;28;20031;-76
2022/04/08 02:30:59;;;;;;;60.05;29.65;;;8.10;99.90;;;;;;5073788;28;20060;-75
2022/04/08 02:33:25;;;;;;;57.20;26.08;;;8.10;99.90;;;;;;5073849;28;20110;-75
2022/04/08 02:35:51;;;;;;;60.38;28.77;;;8.10;99.90;;;;;;5073315;28;20029;-77
2022/04/08 02:38:16;;;;;;;67.05;30.58;;;8.10;99.90;;;;;;5073667;28;20383;-77
2022/04/08 02:40:42;;;;;;;71.93;32.15;;;8.10;99.90;;;;;;5073797;28;20025;-77
2022/04/08 02:43:08;;;;;;;56.33;28.65;;;8.10;99.90;;;;;;5073185;28;20024;-77
2022/04/08 02:45:34;;;;;;;49.33;25.98;;;8.10;99.90;;;;;;5073697;28;20067;-75
2022/04/08 02:47:59;;;;;;;45.78;24.23;;;8.00;99.90;;;;;;5073816;28;20025;-75
2022/04/08 02:50:25;;;;;;;48.75;22.83;;;8.00;99.90;;;;;;5073405;28;20387;-76
2022/04/08 02:52:51;;;;;;;49.83;22.52;;;8.10;99.90;;;;;;5055555;28;20040;-76
2022/04/08 02:55:18;;;;;;;43.97;22.38;;;8.00;99.90;;;;;;5073545;28;20456;-76
2022/04/08 02:57:47;;;;;;;44.45;22.63;;;8.00;99.90;;;;;;5073499;28;20049;-77
2022/04/08 03:00:17;;;;;;;40.25;20.85;;;8.00;99.90;;;;;;5073747;28;20032;-74
2022/04/08 03:02:48;;;;;;;44.17;22.27;;;8.00;99.90;;;;;;5073292;28;20029;-75
2022/04/08 03:05:14;;;;;;;45.88;21.35;;;8.00;99.90;;;;;;5073210;28;20390;-77
2022/04/08 03:07:41;;;;;;;47.17;20.25;;;8.00;99.90;;;;;;5073880;28;20108;-75
2022/04/08 03:10:09;;;;;;;41.88;19.95;;;8.00;99.90;;;;;;5073277;28;20540;-77
2022/04/08 03:12:35;;;;;;;55.78;26.05;;;7.90;99.90;;;;;;5073299;28;20033;-75
2022/04/08 03:15:01;;;;;;;62.35;27.48;;;7.90;99.90;;;;;;5073427;28;20204;-76
2022/04/08 03:17:27;;;;;;;66.25;29.13;;;7.90;99.90;;;;;;5073503;28;20115;-76
2022/04/08 03:19:53;;;;;;;70.55;30.90;;;7.90;99.90;;;;;;5076288;28;20111;-75
2022/04/08 03:22:20;;;;;;;65.93;31.73;;;7.90;99.90;;;;;;5077308;28;20032;-76
2022/04/08 03:24:51;;;;;;;69.03;32.55;;;7.90;99.90;;;;;;5059168;28;20453;-75
2022/04/08 03:27:17;;;;;;;66.15;31.08;;;7.90;99.90;;;;;;5076991;28;20024;-75
2022/04/08 03:29:43;;;;;;;68.63;31.27;;;7.90;99.90;;;;;;5059222;28;20126;-77
2022/04/08 03:32:10;;;;;;;72.85;29.27;;;7.90;99.90;;;;;;5076621;28;20024;-75
2022/04/08 03:34:36;;;;;;;60.80;27.60;;;7.80;99.90;;;;;;5077050;28;20098;-75
2022/04/08 03:37:02;;;;;;;62.33;26.95;;;7.80;99.90;;;;;;5058813;28;20455;-74
2022/04/08 03:39:28;;;;;;;53.10;25.52;;;7.80;99.90;;;;;;5076686;28;20040;-74
2022/04/08 03:41:54;;;;;;;54.05;27.60;;;7.70;99.90;;;;;;5076740;28;20021;-75
2022/04/08 03:44:20;;;;;;;58.60;28.10;;;7.60;99.90;;;;;;5076946;28;20115;-76
2022/04/08 03:46:47;;;;;;;71.05;28.35;;;7.60;99.90;;;;;;5076488;28;20052;-75
2022/04/08 03:49:16;;;;;;;64.30;28.38;;;7.60;99.90;;;;;;5076696;28;20025;-75
2022/04/08 03:51:46;;;;;;;60.50;27.95;;;7.60;99.90;;;;;;5076636;28;20419;-76
2022/04/08 03:54:13;;;;;;;74.90;30.02;;;7.70;99.90;;;;;;5058907;28;20057;-76
2022/04/08 03:56:43;;;;;;;72.03;31.55;;;7.70;99.90;;;;;;5058685;28;20383;-77
2022/04/08 03:59:10;;;;;;;69.15;30.20;;;7.60;99.90;;;;;;5076652;28;20036;-76
2022/04/08 04:01:36;;;;;;;75.85;32.95;;;7.70;99.90;;;;;;5076667;28;20467;-76
2022/04/08 04:04:03;;;;;;;62.28;27.63;;;7.70;99.90;;;;;;5076524;28;20039;-77
2022/04/08 04:06:30;;;;;;;81.20;29.65;;;7.70;99.90;;;;;;5076510;28;20025;-76
2022/04/08 04:08:56;;;;;;;86.32;30.40;;;7.70;99.90;;;;;;5076565;28;20416;-75
2022/04/08 04:11:22;;;;;;;105.20;32.00;;;7.70;99.90;;;;;;5076385;28;20039;-77
2022/04/08 04:13:48;;;;;;;112.45;32.70;;;7.80;99.90;;;;;;5076171;28;20033;-76
2022/04/08 04:16:14;;;;;;;106.65;35.15;;;7.80;99.90;;;;;;5076405;28;20459;-77
2022/04/08 04:18:40;;;;;;;112.45;34.17;;;7.90;99.90;;;;;;5076289;28;20032;-77
2022/04/08 04:21:06;;;;;;;116.20;35.50;;;7.90;99.90;;;;;;5057951;28;20025;-75
2022/04/08 04:23:33;;;;;;;106.82;34.22;;;7.90;99.90;;;;;;5075722;28;20425;-76
2022/04/08 04:26:00;;;;;;;103.10;35.35;;;8.00;99.90;;;;;;5075814;28;20032;-77
2022/04/08 04:28:29;;;;;;;111.82;35.30;;;8.00;99.90;;;;;;5076083;28;20024;-75
2022/04/08 04:30:56;;;;;;;101.25;34.35;;;8.00;99.90;;;;;;5075848;28;20091;-76
2022/04/08 04:33:22;;;;;;;111.15;32.45;;;8.00;99.90;;;;;;5075770;28;20033;-77
2022/04/08 04:35:48;;;;;;;100.28;34.60;;;8.00;99.90;;;;;;5075927;28;20024;-76
2022/04/08 04:38:14;;;;;;;100.18;33.42;;;8.10;99.90;;;;;;5075529;28;20029;-76
2022/04/08 04:40:40;;;;;;;105.78;36.55;;;8.10;99.90;;;;;;5075407;28;20375;-77
2022/04/08 04:43:06;;;;;;;97.65;38.53;;;8.10;99.90;;;;;;5075327;28;20174;-77
2022/04/08 04:45:31;;;;;;;95.57;38.50;;;8.10;99.90;;;;;;5067407;28;20040;-75
2022/04/08 04:47:57;;;;;;;113.80;38.67;;;8.20;99.90;;;;;;5071666;28;20025;-75
2022/04/08 04:50:23;;;;;;;100.10;38.75;;;8.20;99.90;;;;;;5057542;28;20025;-77
2022/04/08 04:52:49;;;;;;;132.88;42.28;;;8.20;99.90;;;;;;5075351;28;20029;-76
2022/04/08 04:55:15;;;;;;;102.80;44.55;;;8.30;99.90;;;;;;5057441;28;20031;-75
2022/04/08 04:57:40;;;;;;;107.35;43.78;;;8.30;99.90;;;;;;5067417;28;20491;-75
2022/04/08 05:00:09;;;;;;;108.13;42.03;;;8.30;99.90;;;;;;5055205;28;20107;-76
2022/04/08 05:02:36;;;;;;;125.35;41.63;;;8.40;99.90;;;;;;5057387;28;20055;-75
2022/04/08 05:05:02;;;;;;;99.80;38.08;;;8.50;99.90;;;;;;5043807;28;20541;-75
2022/04/08 05:07:27;;;;;;;121.15;44.72;;;8.60;99.90;;;;;;5055461;28;20021;-75
2022/04/08 05:09:53;;;;;;;114.28;45.05;;;8.80;99.90;;;;;;5053655;28;20028;-77
2022/04/08 05:12:19;;;;;;;131.27;45.22;;;8.90;99.90;;;;;;5054854;28;20029;-75
2022/04/08 05:14:45;;;;;;;111.53;40.97;;;9.10;99.90;;;;;;5055033;28;20033;-74
2022/04/08 05:17:10;;;;;;;111.40;42.08;;;9.30;99.90;;;;;;5054685;28;20033;-77
2022/04/08 05:19:36;;;;;;;109.30;41.20;;;9.50;99.90;;;;;;5055295;28;20082;-77
2022/04/08 05:22:02;;;;;;;113.30;40.25;;;9.60;99.90;;;;;;5053100;28;20021;-75
2022/04/08 05:24:28;;;;;;;98.68;39.33;;;9.80;99.90;;;;;;5053088;28;20033;-77
2022/04/08 05:26:54;;;;;;;107.50;39.08;;;10.00;99.90;;;;;;5054277;28;20099;-77
2022/04/08 05:29:20;;;;;;;106.55;38.75;;;10.10;99.90;;;;;;5054302;28;20021;-76
2022/04/08 05:31:47;;;;;;;106.95;43.13;;;10.30;99.90;;;;;;5052398;28;20111;-78
2022/04/08 05:34:13;;;;;;;103.30;45.20;;;10.40;99.90;;;;;;5052610;28;20032;-76
2022/04/08 05:36:39;;;;;;;98.75;44.78;;;10.60;99.90;;;;;;5053786;28;20029;-77
2022/04/08 05:39:04;;;;;;;100.80;45.03;;;10.70;99.90;;;;;;5053611;28;20025;-76
2022/04/08 05:41:30;;;;;;;107.28;43.90;;;10.90;99.90;;;;;;5052952;28;20110;-77
2022/04/08 05:43:56;;;;;;;95.13;43.75;;;11.10;99.90;;;;;;5052386;28;20029;-75
2022/04/08 05:46:22;;;;;;;86.97;42.40;;;11.20;99.90;;;;;;5053457;28;20029;-75
2022/04/08 05:48:47;;;;;;;83.15;37.65;;;11.50;99.90;;;;;;5035348;28;20021;-78
2022/04/08 05:51:13;;;;;;;91.50;35.67;;;11.60;99.90;;;;;;5054054;28;20456;-75
2022/04/08 05:53:39;;;;;;;71.35;30.38;;;11.80;99.90;;;;;;5054076;28;20098;-76
2022/04/08 05:56:05;;;;;;;68.60;27.45;;;12.00;99.90;;;;;;5054278;28;20060;-77
2022/04/08 05:58:32;;;;;;;57.40;23.02;;;12.20;99.90;;;;;;5054347;28;20052;-78
2022/04/08 06:00:58;;;;;;;60.70;20.73;;;12.30;99.90;;;;;;5054304;28;20459;-78
2022/04/08 06:03:24;;;;;;;47.13;18.92;;;12.50;99.90;;;;;;5054322;28;20035;-76
2022/04/08 06:05:49;;;;;;;45.70;21.20;;;12.70;99.90;;;;;;5054084;28;20114;-75
2022/04/08 06:08:15;;;;;;;35.63;18.15;;;12.80;99.90;;;;;;5053847;28;20021;-76
2022/04/08 06:10:41;;;;;;;34.33;18.15;;;12.90;99.90;;;;;;5036322;28;20490;-77
2022/04/08 06:13:07;;;;;;;35.90;17.58;;;13.00;99.90;;;;;;5036056;28;20059;-78
2022/04/08 06:15:33;;;;;;;42.78;16.65;;;13.10;99.90;;;;;;5036139;28;20471;-77
2022/04/08 06:17:58;;;;;;;29.60;13.75;;;13.30;99.90;;;;;;5054128;28;20021;-77
2022/04/08 06:20:25;;;;;;;28.20;12.98;;;13.50;99.90;;;;;;5053865;28;20029;-77
2022/04/08 06:22:52;;;;;;;35.58;12.48;;;13.80;99.90;;;;;;5053736;28;20056;-78
2022/04/08 06:25:20;;;;;;;25.25;11.73;;;13.90;99.90;;;;;;5053750;28;20068;-76
2022/04/08 06:27:56;;;;;;;28.80;12.07;;;14.10;99.90;;;;;;5053963;28;20028;-77
2022/04/08 06:30:23;;;;;;;18.63;8.95;;;14.40;99.90;;;;;;5054113;28;20033;-77
2022/04/08 06:32:49;;;;;;;18.40;9.63;;;14.60;99.90;;;;;;5053580;28;20044;-76
2022/04/08 06:35:15;;;;;;;20.83;8.80;;;14.90;99.90;;;;;;5036050;28;20021;-77
2022/04/08 06:37:40;;;;;;;22.50;8.70;;;15.20;99.90;;;;;;5053800;28;20028;-78
2022/04/08 06:40:11;;;;;;;20.23;8.63;;;15.30;99.90;;;;;;5053592;28;20029;-78
2022/04/08 06:42:38;;;;;;;20.85;9.23;;;15.50;99.90;;;;;;5053375;28;20468;-79
2022/04/08 06:45:07;;;;;;;21.00;8.98;;;15.60;98.80;;;;;;5053712;28;20116;-76
2022/04/08 06:47:33;;;;;;;17.63;9.40;;;15.80;96.80;;;;;;5053510;28;20032;-76
2022/04/08 06:49:59;;;;;;;14.27;6.95;;;16.10;98.60;;;;;;5053849;28;20029;-78
2022/04/08 06:52:25;;;;;;;25.58;20.30;;;16.20;94.30;;;;;;5053365;28;20029;-76
2022/04/08 06:54:51;;;;;;;23.73;7.70;;;16.30;93.50;;;;;;5056554;28;20039;-77
2022/04/08 06:57:17;;;;;;;13.80;5.82;;;16.50;92.20;;;;;;5057802;28;20066;-78
2022/04/08 06:59:43;;;;;;;13.63;5.50;;;16.60;92.30;;;;;;5077778;28;20107;-78
2022/04/08 07:02:09;;;;;;;11.00;5.13;;;16.80;91.10;;;;;;5077344;28;20094;-75
2022/04/08 07:04:38;;;;;;;17.33;10.13;;;16.90;87.80;;;;;;5059598;28;20430;-75
2022/04/08 07:07:07;;;;;;;19.08;11.90;;;17.10;88.20;;;;;;5077376;28;20067;-75
2022/04/08 07:09:33;;;;;;;11.05;5.30;;;17.10;86.50;;;;;;5059647;28;20028;-77
2022/04/08 07:12:00;;;;;;;10.50;4.70;;;17.20;84.40;;;;;;5077509;28;20502;-76
2022/04/08 07:14:27;;;;;;;7.30;4.07;;;17.20;78.50;;;;;;5077320;28;20161;-75
2022/04/08 07:16:53;;;;;;;10.35;5.03;;;17.10;78.70;;;;;;5077491;28;20474;-77
2022/04/08 07:19:19;;;;;;;12.50;4.28;;;17.10;79.50;;;;;;5077262;28;20033;-76
2022/04/08 07:21:44;;;;;;;8.63;4.20;;;17.20;81.10;;;;;;5076636;28;20028;-76
2022/04/08 07:24:10;;;;;;;11.65;4.40;;;17.20;75.40;;;;;;5077302;28;20112;-76
2022/04/08 07:26:36;;;;;;;9.45;3.95;;;17.00;75.70;;;;;;5076597;28;20024;-76
2022/04/08 07:29:02;;;;;;;11.10;3.67;;;17.20;76.00;;;;;;5077010;28;20056;-76
2022/04/08 07:31:28;;;;;;;8.77;3.47;;;17.20;74.90;;;;;;5076106;28;20458;-76
2022/04/08 07:33:54;;;;;;;11.10;4.25;;;17.30;73.00;;;;;;5075358;28;20032;-77
2022/04/08 07:36:20;;;;;;;10.80;4.40;;;17.30;72.70;;;;;;5076634;28;20028;-78
2022/04/08 07:38:46;;;;;;;9.00;4.07;;;17.40;72.70;;;;;;5076845;28;20025;-76
2022/04/08 07:41:12;;;;;;;9.45;4.00;;;17.50;72.30;;;;;;5076525;28;20028;-74
2022/04/08 07:43:38;;;;;;;11.55;4.18;;;17.70;72.00;;;;;;5058680;28;20542;-76
2022/04/08 07:46:03;;;;;;;12.80;4.80;;;17.70;70.70;;;;;;5076754;28;20025;-75
2022/04/08 07:48:31;;;;;;;16.15;7.68;;;17.90;71.60;;;;;;5076892;28;20024;-75
2022/04/08 07:50:57;;;;;;;16.42;7.45;;;17.80;72.50;;;;;;5076291;28;20020;-75
2022/04/08 07:53:23;;;;;;;19.45;8.35;;;17.90;73.60;;;;;;5076494;28;20032;-74
2022/04/08 07:55:48;;;;;;;10.65;4.68;;;18.30;71.40;;;;;;5075958;28;20021;-74
2022/04/08 07:58:15;;;;;;;10.15;4.85;;;18.60;69.00;;;;;;5067673;28;20534;-76
2022/04/08 08:00:41;;;;;;;8.32;4.93;;;19.00;68.60;;;;;;5056457;28;20021;-75
2022/04/08 08:03:06;;;;;;;8.65;4.38;;;19.30;66.60;;;;;;5056296;28;20025;-74
2022/04/08 08:05:33;;;;;;;8.15;4.18;;;19.20;62.60;;;;;;5055730;28;20029;-75
2022/04/08 08:08:01;;;;;;;7.40;4.35;;;19.60;63.90;;;;;;5056165;28;20021;-75
2022/04/08 08:10:32;;;;;;;10.88;4.47;;;19.80;61.50;;;;;;5055966;28;20467;-76
2022/04/08 08:13:02;;;;;;;12.02;4.55;;;20.10;61.70;;;;;;5056150;28;20052;-74
2022/04/08 08:15:30;;;;;;;8.82;4.75;;;20.00;59.60;;;;;;5056221;28;20086;-75
2022/04/08 08:17:57;;;;;;;9.85;4.70;;;20.30;59.50;;;;;;5055888;28;20025;-74
2022/04/08 08:20:23;;;;;;;8.35;4.43;;;20.30;60.00;;;;;;5055945;28;20120;-75
2022/04/08 08:22:50;;;;;;;8.30;5.13;;;20.30;59.40;;;;;;5055661;28;20029;-76
2022/04/08 08:25:17;;;;;;;11.02;6.68;;;20.60;57.70;;;;;;5055794;28;20031;-74
2022/04/08 08:27:48;;;;;;;12.55;6.18;;;20.60;56.80;;;;;;5055602;28;20032;-77
2022/04/08 08:30:16;;;;;;;9.18;5.20;;;20.90;58.00;;;;;;5056236;28;20024;-76
2022/04/08 08:32:49;;;;;;;8.02;4.82;;;21.10;55.70;;;;;;5055621;28;20036;-77
2022/04/08 08:35:19;;;;;;;19.73;9.27;;;21.00;55.80;;;;;;5037539;28;20029;-75
2022/04/08 08:37:46;;;;;;;9.00;4.35;;;21.10;55.10;;;;;;5037841;28;20029;-76
2022/04/08 08:40:14;;;;;;;9.55;4.68;;;21.30;55.20;;;;;;5055223;28;20036;-75
2022/04/08 08:42:40;;;;;;;10.57;5.18;;;21.20;54.80;;;;;;5055552;28;20504;-77
2022/04/08 08:45:08;;;;;;;8.25;3.88;;;21.40;54.70;;;;;;5055275;28;20036;-76
2022/04/08 08:47:35;;;;;;;11.60;4.13;;;21.40;51.80;;;;;;5055614;28;20364;-75
2022/04/08 08:50:02;;;;;;;10.38;4.10;;;21.40;53.70;;;;;;5037539;28;20388;-76
2022/04/08 08:52:28;;;;;;;17.67;4.10;;;21.30;53.90;;;;;;5055708;28;20065;-75
2022/04/08 08:54:54;;;;;;;12.57;7.25;;;21.60;53.20;;;;;;5055458;28;20344;-75
2022/04/08 08:57:22;;;;;;;10.05;4.65;;;21.10;52.60;;;;;;5055308;28;20021;-75
2022/04/08 08:59:51;;;;;;;9.48;6.47;;;20.90;53.50;;;;;;5055030;28;20044;-76
2022/04/08 09:02:19;;;;;;;8.52;3.47;;;21.00;54.70;;;;;;5055237;28;20112;-76
2022/04/08 09:04:45;;;;;;;14.07;3.85;;;21.10;54.40;;;;;;5037709;28;20387;-75
2022/04/08 09:07:25;;;;;;;11.52;3.75;;;21.10;54.80;;;;;;5054844;28;20025;-74
2022/04/08 09:09:56;;;;;;;13.10;4.70;;;21.10;53.30;;;;;;5055188;28;20460;-76
2022/04/08 09:12:27;;;;;;;10.82;3.70;;;20.90;54.50;;;;;;5055377;28;20387;-76
2022/04/08 09:14:55;;;;;;;11.35;4.47;;;21.10;53.90;;;;;;5055275;28;20025;-74
2022/04/08 09:17:23;;;;;;;10.20;4.15;;;21.40;52.70;;;;;;5054359;28;20033;-77
2022/04/08 09:19:58;;;;;;;7.75;3.85;;;22.00;53.90;;;;;;5037209;28;20029;-76
2022/04/08 09:22:29;;;;;;;9.57;5.20;;;22.50;51.50;;;;;;5055057;28;20115;-75
2022/04/08 09:25:14;;;;;;;9.27;5.65;;;22.60;51.30;;;;;;5054963;28;20028;-76
2022/04/08 09:27:41;;;;;;;7.72;3.95;;;22.80;51.40;;;;;;5054833;28;20033;-76
2022/04/08 09:30:08;;;;;;;9.00;3.25;;;23.30;47.40;;;;;;5054814;28;20029;-77
2022/04/08 09:32:35;;;;;;;11.88;4.72;;;23.30;49.60;;;;;;5054921;28;20078;-76
2022/04/08 09:35:02;;;;;;;12.60;6.53;;;;;;;;;;5054297;28;20029;-75
2022/04/08 09:37:31;;;;;;;37.67;21.77;;;;;;;;;;5054736;28;20063;-75
2022/04/08 09:39:57;;;;;;;13.38;6.40;;;;;;;;;;5054704;28;20152;-75
2022/04/08 09:42:44;;;;;;;6.20;3.60;;;;;;;;;;5054620;28;20028;-77
2022/04/08 09:45:10;;;;;;;6.80;3.78;;;;;;;;;;5054438;28;20051;-76
2022/04/08 09:47:40;;;;;;;9.13;3.35;;;;;;;;;;5054608;28;20087;-76
2022/04/08 09:50:08;;;;;;;11.27;7.53;;;;;;;;;;5054060;28;20372;-75
2022/04/08 09:52:37;;;;;;;8.65;4.93;;;;;;;;;;5054203;28;20403;-76
2022/04/08 09:55:07;;;;;;;7.72;3.50;;;;;;;;;;5053903;28;20025;-77
2022/04/08 09:57:36;;;;;;;7.72;3.30;;;;;;;;;;5036430;28;20084;-77
2022/04/08 10:00:03;;;;;;;6.60;3.72;;;;;;;;;;5053922;28;20392;-76
2022/04/08 10:02:30;;;;;;;6.03;4.03;;;;;;;;;;5054046;28;20032;-76
2022/04/08 10:04:56;;;;;;;8.48;4.50;;;;;;;;;;5054302;28;20029;-76
2022/04/08 10:07:22;;;;;;;6.50;4.35;;;;;;;;;;5036324;28;20533;-75
2022/04/08 10:10:08;;;;;;;15.98;9.60;;;;;;;;;;5053637;28;20072;-76
2022/04/08 10:12:40;;;;;;;7.72;4.50;;;;;;;;;;5054182;28;20475;-76
2022/04/08 10:15:22;;;;;;;7.00;4.10;;;;;;;;;;5053829;28;20019;-76
2022/04/08 10:17:58;;;;;;;9.40;4.80;;;;;;;;;;5036018;28;20017;-77
2022/04/08 10:20:24;;;;;;;13.52;8.45;;;;;;;;;;5053762;28;20017;-75
2022/04/08 10:22:52;;;;;;;13.57;5.20;;;;;;;;;;5053628;28;20074;-75
2022/04/08 10:25:20;;;;;;;16.80;6.38;;;;;;;;;;5053774;28;20079;-75
2022/04/08 10:27:46;;;;;;;9.75;4.53;;;;;;;;;;5053744;28;20029;-76
2022/04/08 10:30:20;;;;;;;9.45;4.43;;;;;;;;;;5053400;28;20017;-75
2022/04/08 10:32:48;;;;;;;5.30;4.03;;;;;;;;;;5053959;28;20027;-76
2022/04/08 10:35:18;;;;;;;6.43;4.00;;;;;;;;;;5053718;28;20021;-76
2022/04/08 10:38:01;;;;;;;10.13;4.63;;;;;;;;;;5053645;28;20464;-76
2022/04/08 10:40:50;;;;;;;6.72;4.43;;;;;;;;;;5053262;28;20021;-75
2022/04/08 10:43:16;;;;;;;7.93;4.60;;;;;;;;;;5035378;28;20390;-76
2022/04/08 10:45:52;;;;;;;5.90;4.30;;;;;;;;;;5052557;28;20039;-77
2022/04/08 10:48:19;;;;;;;25.42;11.00;;;;;;;;;;5053208;28;20017;-76
2022/04/08 10:50:45;;;;;;;5.55;4.45;;;;;;;;;;5051935;28;20017;-76
2022/04/08 10:53:12;;;;;;;6.97;4.50;;;;;;;;;;5052576;28;20021;-77
2022/04/08 10:55:53;;;;;;;8.23;4.53;;;;;;;;;;5052945;28;20049;-77
2022/04/08 10:58:36;;;;;;;8.40;5.53;;;;;;;;;;5048166;28;20051;-76
2022/04/08 11:01:15;;;;;;;6.68;4.43;;;;;;;;;;5072915;28;20033;-76
2022/04/08 11:03:45;;;;;;;16.38;9.10;;;;;;;;;;5073005;28;20077;-75
2022/04/08 11:06:13;;;;;;;10.90;5.18;;;;;;;;;;5072734;28;20017;-76
2022/04/08 11:08:39;;;;;;;9.02;4.60;;;;;;;;;;5072561;28;20048;-77
2022/04/08 11:11:05;;;;;;;7.28;5.25;;;;;;;;;;5073157;28;20540;-77
2022/04/08 11:13:31;;;;;;;20.35;10.05;;;;;;;;;;5072154;28;20378;-76
2022/04/08 11:15:57;;;;;;;12.90;7.72;;;;;;;;;;5072774;28;20016;-77
2022/04/08 11:18:27;;;;;;;24.13;10.55;;;;;;;;;;5072346;28;20383;-76
2022/04/08 11:20:53;;;;;;;15.88;6.15;;;;;;;;;;5072587;28;20558;-78
2022/04/08 11:23:29;;;;;;;13.30;5.90;;;;;;;;;;5072075;28;20417;-77
2022/04/08 11:25:56;;;;;;;14.50;6.10;;;;;;;;;;5072623;28;20016;-76
2022/04/08 11:28:23;;;;;;;9.65;6.85;;;;;;;;;;5072845;28;20025;-77
2022/04/08 11:30:55;;;;;;;14.95;6.20;;;;;;;;;;5072319;28;20414;-76
2022/04/08 11:33:21;;;;;;;12.15;5.47;;;;;;;;;;5072370;28;20067;-77
2022/04/08 11:35:48;;;;;;;7.13;5.22;;;;;;;;;;5072330;28;20459;-76
2022/04/08 11:38:15;;;;;;;7.93;5.30;;;;;;;;;;5072274;28;20029;-77
2022/04/08 11:40:42;;;;;;;9.23;4.85;;;;;;;;;;5074473;28;20100;-77
2022/04/08 11:43:08;;;;;;;19.92;13.23;;;;;;;;;;5076167;28;20040;-77
2022/04/08 11:45:35;;;;;;;11.95;5.97;;;;;;;;;;5076097;28;20032;-76
2022/04/08 11:48:01;;;;;;;9.65;6.10;;;;;;;;;;5075743;28;20024;-77
2022/04/08 11:50:28;;;;;;;8.07;5.10;;;;;;;;;;5076165;28;20112;-75
2022/04/08 11:52:55;;;;;;;11.00;8.05;;;;;;;;;;5075915;28;20021;-77
2022/04/08 11:55:26;;;;;;;10.77;5.90;;;;;;;;;;5075394;28;20375;-76
2022/04/08 11:57:52;;;;;;;10.13;5.57;;;;;;;;;;5071092;28;20052;-78
2022/04/08 12:00:25;;;;;;;14.70;5.20;;;;;;;;;;5038094;28;20063;-75
2022/04/08 12:02:51;;;;;;;10.63;5.30;;;;;;;;;;5037820;28;20033;-76
2022/04/08 12:05:24;;;;;;;7.82;4.53;;;;;;;;;;5055649;28;20016;-76
2022/04/08 12:07:56;;;;;;;5.57;4.93;;;;;;;;;;5038184;28;20025;-77
2022/04/08 12:10:23;;;;;;;10.57;5.35;;;;;;;;;;5038104;28;20364;-77
2022/04/08 12:12:49;;;;;;;12.25;5.13;;;;;;;;;;5055747;28;20025;-76
2022/04/08 12:15:15;;;;;;;8.25;4.63;;;;;;;;;;5055578;28;20573;-78
2022/04/08 12:17:46;;;;;;;9.27;4.47;;;;;;;;;;5055561;28;20107;-75
2022/04/08 12:20:13;;;;;;;7.97;5.35;;;;;;;;;;5055309;28;20043;-76
2022/04/08 12:22:40;;;;;;;9.63;5.40;;;;;;;;;;5054775;28;20029;-76
2022/04/08 12:25:07;;;;;;;8.55;5.30;;;;;;;;;;5055450;28;20031;-76
2022/04/08 12:27:34;;;;;;;10.30;5.32;;;;;;;;;;5037393;28;20115;-76
2022/04/08 12:30:08;;;;;;;7.22;4.90;;;;;;;;;;5037347;28;20028;-76
2022/04/08 12:32:36;;;;;;;10.60;4.38;;;;;;;;;;5055095;28;20028;-76
2022/04/08 12:35:02;;;;;;;6.55;4.88;;;;;;;;;;5055382;28;20053;-76
2022/04/08 12:37:28;;;;;;;11.95;4.70;;;;;;;;;;5054638;28;20060;-75
2022/04/08 12:39:55;;;;;;;6.40;4.50;;;;;;;;;;5055158;28;20025;-76
2022/04/08 12:42:21;;;;;;;12.40;5.53;;;;;;;;;;5055159;28;20094;-75
2022/04/08 12:44:47;;;;;;;8.10;4.93;;;;;;;;;;5055096;28;20028;-76
2022/04/08 12:47:13;;;;;;;7.70;4.50;;;;;;;;;;5055066;28;20027;-76
2022/04/08 12:49:39;;;;;;;9.35;4.95;;;;;;;;;;5057116;28;20506;-76
2022/04/08 12:52:06;;;;;;;7.10;4.55;;;;;;;;;;5061959;28;20379;-77
2022/04/08 12:54:32;;;;;;;7.20;4.95;;;25.10;37.50;;;;;;5064262;28;20017;-77
2022/04/08 12:56:57;;;;;;;7.22;4.40;;;25.00;37.70;;;;;;5064353;28;20036;-77
2022/04/08 12:59:23;;;;;;;8.73;5.13;;;;;;;;;;5064176;28;20048;-76
2022/04/08 13:01:50;;;;;;;6.32;4.57;;;;;;;;;;5057850;28;20476;-78
2022/04/08 13:04:16;;;;;;;4.90;4.22;;;;;;;;;;5059254;28;20367;-79